sensor_id;sensor_type;location;lat;lon;timestamp;temperature;humidity
79065;DHT22;68469;51.502;7.462;2023-07-20T00:00:49;16.30;99.90
79065;DHT22;68469;51.502;7.462;2023-07-20T00:03:19;16.30;99.90
79065;DHT22;68469;51.502;7.462;2023-07-20T00:05:49;16.20;99.90
79065;DHT22;68469;51.502;7.462;2023-07-20T00:08:15;16.20;99.90
79065;DHT22;68469;51.502;7.462;2023-07-20T00:10:42;16.20;99.90
79065;DHT22;68469;51.502;7.462;2023-07-20T00:13:08;16.20;99.90
79065;DHT22;68469;51.502;7.462;2023-07-20T00:15:34;16.20;99.90
79065;DHT22;68469;51.502;7.462;2023-07-20T00:17:59;16.20;99.90
79065;DHT22;68469;51.502;7.462;2023-07-20T00:20:25;16.20;99.90
79065;DHT22;68469;51.502;7.462;2023-07-20T00:22:51;16.20;99.90
79065;DHT22;68469;51.502;7.462;2023-07-20T00:25:17;16.20;99.90
79065;DHT22;68469;51.502;7.462;2023-07-20T00:27:43;16.20;99.90
79065;DHT22;68469;51.502;7.462;2023-07-20T00:30:09;16.20;99.90
79065;DHT22;68469;51.502;7.462;2023-07-20T00:32:35;16.20;99.90
79065;DHT22;68469;51.502;7.462;2023-07-20T00:35:01;16.30;99.90
79065;DHT22;68469;51.502;7.462;2023-07-20T00:37:26;16.30;99.90
79065;DHT22;68469;51.502;7.462;2023-07-20T00:39:53;16.30;99.90
79065;DHT22;68469;51.502;7.462;2023-07-20T00:42:18;16.30;99.60
79065;DHT22;68469;51.502;7.462;2023-07-20T00:44:44;16.30;99.80
79065;DHT22;68469;51.502;7.462;2023-07-20T00:47:10;16.30;99.80
79065;DHT22;68469;51.502;7.462;2023-07-20T00:49:36;16.30;99.80
79065;DHT22;68469;51.502;7.462;2023-07-20T00:52:03;16.30;99.40
79065;DHT22;68469;51.502;7.462;2023-07-20T00:54:32;16.30;99.40
79065;DHT22;68469;51.502;7.462;2023-07-20T00:56:58;16.30;99.50
79065;DHT22;68469;51.502;7.462;2023-07-20T00:59:26;16.30;99.50
79065;DHT22;68469;51.502;7.462;2023-07-20T01:01:52;16.40;99.50
79065;DHT22;68469;51.502;7.462;2023-07-20T01:04:17;16.40;99.20
79065;DHT22;68469;51.502;7.462;2023-07-20T01:12:47;16.30;99.10
79065;DHT22;68469;51.502;7.462;2023-07-20T01:15:13;16.30;99.00
79065;DHT22;68469;51.502;7.462;2023-07-20T01:17:39;16.30;98.60
79065;DHT22;68469;51.502;7.462;2023-07-20T01:20:06;16.30;99.10
79065;DHT22;68469;51.502;7.462;2023-07-20T01:31:33;16.30;98.80
79065;DHT22;68469;51.502;7.462;2023-07-20T01:34:01;16.30;98.80
79065;DHT22;68469;51.502;7.462;2023-07-20T01:36:34;16.20;98.70
79065;DHT22;68469;51.502;7.462;2023-07-20T01:39:00;16.20;99.00
79065;DHT22;68469;51.502;7.462;2023-07-20T01:41:27;16.20;99.00
79065;DHT22;68469;51.502;7.462;2023-07-20T01:43:53;16.10;98.50
79065;DHT22;68469;51.502;7.462;2023-07-20T01:46:22;16.10;98.80
79065;DHT22;68469;51.502;7.462;2023-07-20T01:48:48;16.00;98.90
79065;DHT22;68469;51.502;7.462;2023-07-20T01:51:13;16.00;98.90
79065;DHT22;68469;51.502;7.462;2023-07-20T01:53:39;16.10;98.70
79065;DHT22;68469;51.502;7.462;2023-07-20T01:56:05;16.10;98.90
79065;DHT22;68469;51.502;7.462;2023-07-20T01:58:30;16.10;99.00
79065;DHT22;68469;51.502;7.462;2023-07-20T02:00:56;16.10;99.00
79065;DHT22;68469;51.502;7.462;2023-07-20T02:03:21;16.10;99.00
79065;DHT22;68469;51.502;7.462;2023-07-20T02:05:49;16.10;99.00
79065;DHT22;68469;51.502;7.462;2023-07-20T02:08:15;16.10;98.90
79065;DHT22;68469;51.502;7.462;2023-07-20T02:10:41;16.10;98.90
79065;DHT22;68469;51.502;7.462;2023-07-20T02:13:07;16.00;99.00
79065;DHT22;68469;51.502;7.462;2023-07-20T02:15:33;16.00;98.80
79065;DHT22;68469;51.502;7.462;2023-07-20T02:17:58;15.90;98.90
79065;DHT22;68469;51.502;7.462;2023-07-20T02:20:24;15.90;99.00
79065;DHT22;68469;51.502;7.462;2023-07-20T02:22:50;15.80;98.90
79065;DHT22;68469;51.502;7.462;2023-07-20T02:25:15;15.80;99.00
79065;DHT22;68469;51.502;7.462;2023-07-20T02:27:41;15.80;99.20
79065;DHT22;68469;51.502;7.462;2023-07-20T02:30:07;15.80;99.30
79065;DHT22;68469;51.502;7.462;2023-07-20T02:32:34;15.80;99.20
79065;DHT22;68469;51.502;7.462;2023-07-20T02:35:00;15.80;99.10
79065;DHT22;68469;51.502;7.462;2023-07-20T02:37:25;15.80;99.20
79065;DHT22;68469;51.502;7.462;2023-07-20T02:39:51;15.80;99.10
79065;DHT22;68469;51.502;7.462;2023-07-20T02:42:17;15.80;98.80
79065;DHT22;68469;51.502;7.462;2023-07-20T02:44:43;15.90;98.60
79065;DHT22;68469;51.502;7.462;2023-07-20T02:47:08;15.90;98.60
79065;DHT22;68469;51.502;7.462;2023-07-20T02:49:34;15.90;98.70
79065;DHT22;68469;51.502;7.462;2023-07-20T02:52:00;15.90;98.90
79065;DHT22;68469;51.502;7.462;2023-07-20T02:54:25;16.00;98.70
79065;DHT22;68469;51.502;7.462;2023-07-20T02:56:51;16.00;99.40
79065;DHT22;68469;51.502;7.462;2023-07-20T02:59:17;16.00;99.80
79065;DHT22;68469;51.502;7.462;2023-07-20T03:01:42;16.00;99.90
79065;DHT22;68469;51.502;7.462;2023-07-20T03:04:08;16.00;99.90
79065;DHT22;68469;51.502;7.462;2023-07-20T03:06:36;16.00;99.90
79065;DHT22;68469;51.502;7.462;2023-07-20T03:09:02;16.00;99.90
79065;DHT22;68469;51.502;7.462;2023-07-20T03:11:29;16.00;99.90
79065;DHT22;68469;51.502;7.462;2023-07-20T03:13:54;16.00;99.90
79065;DHT22;68469;51.502;7.462;2023-07-20T03:16:21;16.00;99.90
79065;DHT22;68469;51.502;7.462;2023-07-20T03:18:47;16.00;99.90
79065;DHT22;68469;51.502;7.462;2023-07-20T03:21:13;15.90;99.90
79065;DHT22;68469;51.502;7.462;2023-07-20T03:23:39;15.90;99.90
79065;DHT22;68469;51.502;7.462;2023-07-20T03:26:05;15.90;99.90
79065;DHT22;68469;51.502;7.462;2023-07-20T03:28:37;15.80;99.90
79065;DHT22;68469;51.502;7.462;2023-07-20T03:31:03;15.80;99.90
79065;DHT22;68469;51.502;7.462;2023-07-20T03:33:29;15.80;99.90
79065;DHT22;68469;51.502;7.462;2023-07-20T03:35:56;15.80;99.90
79065;DHT22;68469;51.502;7.462;2023-07-20T03:38:22;15.80;99.90
79065;DHT22;68469;51.502;7.462;2023-07-20T03:40:53;15.80;99.90
79065;DHT22;68469;51.502;7.462;2023-07-20T03:43:19;15.80;99.90
79065;DHT22;68469;51.502;7.462;2023-07-20T03:45:44;15.80;99.90
79065;DHT22;68469;51.502;7.462;2023-07-20T03:48:15;15.80;99.90
79065;DHT22;68469;51.502;7.462;2023-07-20T03:50:41;15.80;99.90
79065;DHT22;68469;51.502;7.462;2023-07-20T03:53:06;15.80;99.90
79065;DHT22;68469;51.502;7.462;2023-07-20T03:55:32;15.80;99.90
79065;DHT22;68469;51.502;7.462;2023-07-20T03:57:58;15.80;99.90
79065;DHT22;68469;51.502;7.462;2023-07-20T04:00:23;15.80;99.90
79065;DHT22;68469;51.502;7.462;2023-07-20T04:02:49;15.80;99.90
79065;DHT22;68469;51.502;7.462;2023-07-20T04:05:15;15.80;99.90
79065;DHT22;68469;51.502;7.462;2023-07-20T04:07:41;15.90;99.90
79065;DHT22;68469;51.502;7.462;2023-07-20T04:10:06;15.90;99.90
79065;DHT22;68469;51.502;7.462;2023-07-20T04:12:32;15.80;99.90
79065;DHT22;68469;51.502;7.462;2023-07-20T04:14:58;15.80;99.90
79065;DHT22;68469;51.502;7.462;2023-07-20T04:17:23;15.80;99.90
79065;DHT22;68469;51.502;7.462;2023-07-20T04:19:49;15.90;99.90
79065;DHT22;68469;51.502;7.462;2023-07-20T04:22:15;15.90;99.90
79065;DHT22;68469;51.502;7.462;2023-07-20T04:24:42;15.90;99.90
79065;DHT22;68469;51.502;7.462;2023-07-20T04:27:08;15.90;99.90
79065;DHT22;68469;51.502;7.462;2023-07-20T04:29:33;15.90;99.90
79065;DHT22;68469;51.502;7.462;2023-07-20T04:31:59;15.90;99.90
79065;DHT22;68469;51.502;7.462;2023-07-20T04:34:24;15.90;99.90
79065;DHT22;68469;51.502;7.462;2023-07-20T04:36:50;15.90;99.90
79065;DHT22;68469;51.502;7.462;2023-07-20T04:39:15;15.90;99.90
79065;DHT22;68469;51.502;7.462;2023-07-20T04:41:41;16.00;99.90
79065;DHT22;68469;51.502;7.462;2023-07-20T04:44:07;16.00;99.90
79065;DHT22;68469;51.502;7.462;2023-07-20T04:46:32;16.00;99.90
79065;DHT22;68469;51.502;7.462;2023-07-20T04:48:58;16.00;99.90
79065;DHT22;68469;51.502;7.462;2023-07-20T04:51:23;16.00;99.90
79065;DHT22;68469;51.502;7.462;2023-07-20T04:53:49;16.00;99.90
79065;DHT22;68469;51.502;7.462;2023-07-20T04:56:15;16.00;99.90
79065;DHT22;68469;51.502;7.462;2023-07-20T04:58:40;16.00;99.90
79065;DHT22;68469;51.502;7.462;2023-07-20T05:01:06;16.00;99.90
79065;DHT22;68469;51.502;7.462;2023-07-20T05:03:33;16.00;99.90
79065;DHT22;68469;51.502;7.462;2023-07-20T05:05:58;16.00;99.90
79065;DHT22;68469;51.502;7.462;2023-07-20T05:08:24;16.10;99.90
79065;DHT22;68469;51.502;7.462;2023-07-20T05:10:50;16.10;99.90
79065;DHT22;68469;51.502;7.462;2023-07-20T05:13:16;16.10;99.90
79065;DHT22;68469;51.502;7.462;2023-07-20T05:15:42;16.10;99.90
79065;DHT22;68469;51.502;7.462;2023-07-20T05:18:07;16.20;99.90
79065;DHT22;68469;51.502;7.462;2023-07-20T05:20:34;16.40;99.90
79065;DHT22;68469;51.502;7.462;2023-07-20T05:23:00;16.40;99.90
79065;DHT22;68469;51.502;7.462;2023-07-20T05:25:26;16.60;99.90
79065;DHT22;68469;51.502;7.462;2023-07-20T05:27:52;16.60;99.90
79065;DHT22;68469;51.502;7.462;2023-07-20T05:30:18;16.70;99.90
79065;DHT22;68469;51.502;7.462;2023-07-20T05:32:44;16.60;99.90
79065;DHT22;68469;51.502;7.462;2023-07-20T05:35:13;16.60;99.90
79065;DHT22;68469;51.502;7.462;2023-07-20T05:37:39;16.60;99.90
79065;DHT22;68469;51.502;7.462;2023-07-20T05:40:05;16.50;99.90
79065;DHT22;68469;51.502;7.462;2023-07-20T05:42:33;16.50;99.90
79065;DHT22;68469;51.502;7.462;2023-07-20T05:44:58;16.40;99.90
79065;DHT22;68469;51.502;7.462;2023-07-20T05:47:24;16.40;99.90
79065;DHT22;68469;51.502;7.462;2023-07-20T05:49:49;16.40;99.90
79065;DHT22;68469;51.502;7.462;2023-07-20T05:52:15;16.50;99.90
79065;DHT22;68469;51.502;7.462;2023-07-20T05:54:41;16.50;99.90
79065;DHT22;68469;51.502;7.462;2023-07-20T05:57:07;16.50;99.90
79065;DHT22;68469;51.502;7.462;2023-07-20T05:59:33;16.50;99.90
79065;DHT22;68469;51.502;7.462;2023-07-20T06:01:59;16.50;99.90
79065;DHT22;68469;51.502;7.462;2023-07-20T06:04:24;16.50;99.90
79065;DHT22;68469;51.502;7.462;2023-07-20T06:06:50;16.50;99.90
79065;DHT22;68469;51.502;7.462;2023-07-20T06:09:16;16.50;99.90
79065;DHT22;68469;51.502;7.462;2023-07-20T06:11:41;16.50;99.90
79065;DHT22;68469;51.502;7.462;2023-07-20T06:14:07;16.60;99.90
79065;DHT22;68469;51.502;7.462;2023-07-20T06:16:32;16.60;99.90
79065;DHT22;68469;51.502;7.462;2023-07-20T06:19:00;16.60;99.90
79065;DHT22;68469;51.502;7.462;2023-07-20T06:21:26;16.60;99.90
79065;DHT22;68469;51.502;7.462;2023-07-20T06:23:51;16.70;99.90
79065;DHT22;68469;51.502;7.462;2023-07-20T06:26:17;16.70;99.90
79065;DHT22;68469;51.502;7.462;2023-07-20T06:28:43;16.70;99.90
79065;DHT22;68469;51.502;7.462;2023-07-20T06:31:08;16.70;99.90
79065;DHT22;68469;51.502;7.462;2023-07-20T06:33:34;16.70;99.90
79065;DHT22;68469;51.502;7.462;2023-07-20T06:36:03;16.80;99.90
79065;DHT22;68469;51.502;7.462;2023-07-20T06:38:29;16.70;99.90
79065;DHT22;68469;51.502;7.462;2023-07-20T06:40:54;16.70;99.90
79065;DHT22;68469;51.502;7.462;2023-07-20T06:43:20;16.70;99.90
79065;DHT22;68469;51.502;7.462;2023-07-20T06:45:51;16.80;99.90
79065;DHT22;68469;51.502;7.462;2023-07-20T06:48:17;16.90;99.90
79065;DHT22;68469;51.502;7.462;2023-07-20T06:50:43;17.10;99.90
79065;DHT22;68469;51.502;7.462;2023-07-20T06:53:09;17.00;99.90
79065;DHT22;68469;51.502;7.462;2023-07-20T06:55:34;17.20;99.90
79065;DHT22;68469;51.502;7.462;2023-07-20T06:58:00;17.60;99.90
79065;DHT22;68469;51.502;7.462;2023-07-20T07:00:25;17.60;99.90
79065;DHT22;68469;51.502;7.462;2023-07-20T07:02:51;17.60;99.90
79065;DHT22;68469;51.502;7.462;2023-07-20T07:05:17;17.90;99.90
79065;DHT22;68469;51.502;7.462;2023-07-20T07:07:43;18.20;99.90
79065;DHT22;68469;51.502;7.462;2023-07-20T07:10:09;18.40;99.90
79065;DHT22;68469;51.502;7.462;2023-07-20T07:12:34;18.60;99.90
79065;DHT22;68469;51.502;7.462;2023-07-20T07:15:02;18.90;99.90
79065;DHT22;68469;51.502;7.462;2023-07-20T07:17:28;19.10;99.90
79065;DHT22;68469;51.502;7.462;2023-07-20T07:19:55;18.90;99.90
79065;DHT22;68469;51.502;7.462;2023-07-20T07:22:21;18.80;99.90
79065;DHT22;68469;51.502;7.462;2023-07-20T07:24:47;18.60;99.90
79065;DHT22;68469;51.502;7.462;2023-07-20T07:27:13;18.60;99.90
79065;DHT22;68469;51.502;7.462;2023-07-20T07:29:41;18.60;99.90
79065;DHT22;68469;51.502;7.462;2023-07-20T07:32:09;18.60;99.90
79065;DHT22;68469;51.502;7.462;2023-07-20T07:34:35;18.80;99.90
79065;DHT22;68469;51.502;7.462;2023-07-20T07:37:01;18.80;99.90
79065;DHT22;68469;51.502;7.462;2023-07-20T07:39:26;18.60;99.90
79065;DHT22;68469;51.502;7.462;2023-07-20T07:41:55;18.50;99.90
79065;DHT22;68469;51.502;7.462;2023-07-20T07:44:20;18.40;99.90
79065;DHT22;68469;51.502;7.462;2023-07-20T07:46:46;18.20;99.90
79065;DHT22;68469;51.502;7.462;2023-07-20T07:49:12;18.00;99.90
79065;DHT22;68469;51.502;7.462;2023-07-20T07:51:38;17.80;99.90
79065;DHT22;68469;51.502;7.462;2023-07-20T07:54:04;17.70;99.90
79065;DHT22;68469;51.502;7.462;2023-07-20T07:56:30;17.90;99.90
79065;DHT22;68469;51.502;7.462;2023-07-20T07:58:55;18.30;99.90
79065;DHT22;68469;51.502;7.462;2023-07-20T08:01:21;18.80;99.90
79065;DHT22;68469;51.502;7.462;2023-07-20T08:03:47;19.30;99.90
79065;DHT22;68469;51.502;7.462;2023-07-20T08:06:13;19.40;99.90
79065;DHT22;68469;51.502;7.462;2023-07-20T08:08:39;19.20;98.20
79065;DHT22;68469;51.502;7.462;2023-07-20T08:11:05;19.10;98.10
79065;DHT22;68469;51.502;7.462;2023-07-20T08:13:31;19.20;99.50
79065;DHT22;68469;51.502;7.462;2023-07-20T08:15:57;19.50;99.00
79065;DHT22;68469;51.502;7.462;2023-07-20T08:18:23;19.90;98.30
79065;DHT22;68469;51.502;7.462;2023-07-20T08:20:49;20.20;98.10
79065;DHT22;68469;51.502;7.462;2023-07-20T08:23:15;20.40;95.60
79065;DHT22;68469;51.502;7.462;2023-07-20T08:25:41;20.60;94.90
79065;DHT22;68469;51.502;7.462;2023-07-20T08:28:18;20.80;95.20
79065;DHT22;68469;51.502;7.462;2023-07-20T08:30:46;21.00;94.70
79065;DHT22;68469;51.502;7.462;2023-07-20T08:33:14;21.20;93.10
79065;DHT22;68469;51.502;7.462;2023-07-20T08:35:39;21.40;90.60
79065;DHT22;68469;51.502;7.462;2023-07-20T08:38:06;21.40;91.40
79065;DHT22;68469;51.502;7.462;2023-07-20T08:40:33;21.30;90.00
79065;DHT22;68469;51.502;7.462;2023-07-20T08:43:00;21.50;90.60
79065;DHT22;68469;51.502;7.462;2023-07-20T08:45:29;21.80;87.20
79065;DHT22;68469;51.502;7.462;2023-07-20T08:48:01;21.80;87.50
79065;DHT22;68469;51.502;7.462;2023-07-20T08:50:30;21.80;86.80
79065;DHT22;68469;51.502;7.462;2023-07-20T08:52:57;21.90;84.90
79065;DHT22;68469;51.502;7.462;2023-07-20T08:55:24;21.90;86.00
79065;DHT22;68469;51.502;7.462;2023-07-20T08:57:53;22.10;82.70
79065;DHT22;68469;51.502;7.462;2023-07-20T09:00:20;22.50;85.10
79065;DHT22;68469;51.502;7.462;2023-07-20T09:02:52;22.70;79.90
79065;DHT22;68469;51.502;7.462;2023-07-20T09:05:19;22.80;81.90
79065;DHT22;68469;51.502;7.462;2023-07-20T09:07:45;22.90;82.50
79065;DHT22;68469;51.502;7.462;2023-07-20T09:10:10;23.00;78.70
79065;DHT22;68469;51.502;7.462;2023-07-20T09:12:38;23.00;76.60
79065;DHT22;68469;51.502;7.462;2023-07-20T09:15:05;23.10;74.20
79065;DHT22;68469;51.502;7.462;2023-07-20T09:17:31;23.20;74.90
79065;DHT22;68469;51.502;7.462;2023-07-20T09:19:56;23.30;72.80
79065;DHT22;68469;51.502;7.462;2023-07-20T09:22:29;23.40;72.30
79065;DHT22;68469;51.502;7.462;2023-07-20T09:24:54;23.40;70.50
79065;DHT22;68469;51.502;7.462;2023-07-20T09:27:20;23.50;70.90
79065;DHT22;68469;51.502;7.462;2023-07-20T09:29:50;23.70;68.60
79065;DHT22;68469;51.502;7.462;2023-07-20T09:32:20;24.10;65.90
79065;DHT22;68469;51.502;7.462;2023-07-20T09:34:46;24.40;63.20
79065;DHT22;68469;51.502;7.462;2023-07-20T09:37:12;24.60;59.30
79065;DHT22;68469;51.502;7.462;2023-07-20T09:39:45;24.90;56.40
79065;DHT22;68469;51.502;7.462;2023-07-20T09:42:12;25.00;57.90
79065;DHT22;68469;51.502;7.462;2023-07-20T09:44:39;25.20;53.90
79065;DHT22;68469;51.502;7.462;2023-07-20T09:47:05;25.30;54.10
79065;DHT22;68469;51.502;7.462;2023-07-20T09:49:31;25.30;50.90
79065;DHT22;68469;51.502;7.462;2023-07-20T09:52:01;25.30;51.50
79065;DHT22;68469;51.502;7.462;2023-07-20T09:54:28;25.50;53.80
79065;DHT22;68469;51.502;7.462;2023-07-20T09:56:54;25.50;51.90
79065;DHT22;68469;51.502;7.462;2023-07-20T09:59:21;25.30;54.60
79065;DHT22;68469;51.502;7.462;2023-07-20T10:01:47;24.90;55.80
79065;DHT22;68469;51.502;7.462;2023-07-20T10:04:16;24.60;54.90
79065;DHT22;68469;51.502;7.462;2023-07-20T10:06:45;24.50;55.40
79065;DHT22;68469;51.502;7.462;2023-07-20T10:09:15;24.60;53.80
79065;DHT22;68469;51.502;7.462;2023-07-20T10:11:50;24.80;54.60
79065;DHT22;68469;51.502;7.462;2023-07-20T10:14:19;24.90;50.90
79065;DHT22;68469;51.502;7.462;2023-07-20T10:16:50;25.20;51.40
79065;DHT22;68469;51.502;7.462;2023-07-20T10:19:26;25.50;49.50
79065;DHT22;68469;51.502;7.462;2023-07-20T10:22:00;25.90;49.00
79065;DHT22;68469;51.502;7.462;2023-07-20T10:24:28;26.10;46.80
79065;DHT22;68469;51.502;7.462;2023-07-20T10:26:55;26.50;45.60
79065;DHT22;68469;51.502;7.462;2023-07-20T10:29:22;26.90;46.40
79065;DHT22;68469;51.502;7.462;2023-07-20T10:31:48;26.90;46.10
79065;DHT22;68469;51.502;7.462;2023-07-20T10:34:15;26.70;46.00
79065;DHT22;68469;51.502;7.462;2023-07-20T10:36:45;27.00;46.60
79065;DHT22;68469;51.502;7.462;2023-07-20T10:39:25;27.10;47.80
79065;DHT22;68469;51.502;7.462;2023-07-20T10:42:03;27.80;47.00
79065;DHT22;68469;51.502;7.462;2023-07-20T10:44:29;28.30;45.40
79065;DHT22;68469;51.502;7.462;2023-07-20T10:47:00;28.90;44.80
79065;DHT22;68469;51.502;7.462;2023-07-20T10:49:26;29.60;43.50
79065;DHT22;68469;51.502;7.462;2023-07-20T10:52:12;30.30;42.40
79065;DHT22;68469;51.502;7.462;2023-07-20T10:54:47;31.70;41.80
79065;DHT22;68469;51.502;7.462;2023-07-20T10:57:29;33.20;38.90
79065;DHT22;68469;51.502;7.462;2023-07-20T11:00:12;34.70;32.60
79065;DHT22;68469;51.502;7.462;2023-07-20T11:02:49;36.00;33.20
79065;DHT22;68469;51.502;7.462;2023-07-20T11:05:38;37.20;31.10
79065;DHT22;68469;51.502;7.462;2023-07-20T11:08:09;38.10;29.90
79065;DHT22;68469;51.502;7.462;2023-07-20T11:10:35;38.70;29.60
79065;DHT22;68469;51.502;7.462;2023-07-20T11:15:45;39.90;28.10
79065;DHT22;68469;51.502;7.462;2023-07-20T11:18:12;40.40;27.20
79065;DHT22;68469;51.502;7.462;2023-07-20T11:20:38;40.90;27.40
79065;DHT22;68469;51.502;7.462;2023-07-20T11:23:03;41.30;28.50
79065;DHT22;68469;51.502;7.462;2023-07-20T11:25:39;42.00;25.80
79065;DHT22;68469;51.502;7.462;2023-07-20T11:28:09;42.20;25.80
79065;DHT22;68469;51.502;7.462;2023-07-20T11:30:37;42.30;26.00
79065;DHT22;68469;51.502;7.462;2023-07-20T11:33:04;42.70;25.50
79065;DHT22;68469;51.502;7.462;2023-07-20T11:35:30;43.00;24.80
79065;DHT22;68469;51.502;7.462;2023-07-20T11:37:56;43.20;24.20
79065;DHT22;68469;51.502;7.462;2023-07-20T11:40:22;43.40;24.90
79065;DHT22;68469;51.502;7.462;2023-07-20T11:43:11;43.60;23.50
79065;DHT22;68469;51.502;7.462;2023-07-20T11:45:40;43.40;24.10
79065;DHT22;68469;51.502;7.462;2023-07-20T11:48:06;43.60;25.00
79065;DHT22;68469;51.502;7.462;2023-07-20T11:50:32;43.80;23.90
79065;DHT22;68469;51.502;7.462;2023-07-20T11:52:57;43.40;25.10
79065;DHT22;68469;51.502;7.462;2023-07-20T11:55:23;42.70;24.20
79065;DHT22;68469;51.502;7.462;2023-07-20T11:58:05;42.40;24.00
79065;DHT22;68469;51.502;7.462;2023-07-20T12:00:31;42.40;23.80
79065;DHT22;68469;51.502;7.462;2023-07-20T12:02:57;42.60;23.80
79065;DHT22;68469;51.502;7.462;2023-07-20T12:05:22;43.00;24.40
79065;DHT22;68469;51.502;7.462;2023-07-20T12:07:50;43.50;24.20
79065;DHT22;68469;51.502;7.462;2023-07-20T12:10:24;43.50;23.90
79065;DHT22;68469;51.502;7.462;2023-07-20T12:12:50;44.10;24.40
79065;DHT22;68469;51.502;7.462;2023-07-20T12:15:20;43.90;23.10
79065;DHT22;68469;51.502;7.462;2023-07-20T12:17:48;43.70;23.60
79065;DHT22;68469;51.502;7.462;2023-07-20T12:20:31;43.70;24.00
79065;DHT22;68469;51.502;7.462;2023-07-20T12:23:05;44.10;23.00
79065;DHT22;68469;51.502;7.462;2023-07-20T12:25:40;44.30;23.20
79065;DHT22;68469;51.502;7.462;2023-07-20T12:28:10;44.30;23.30
79065;DHT22;68469;51.502;7.462;2023-07-20T12:30:39;42.90;23.20
79065;DHT22;68469;51.502;7.462;2023-07-20T12:33:04;42.50;24.10
79065;DHT22;68469;51.502;7.462;2023-07-20T12:35:31;40.50;24.10
79065;DHT22;68469;51.502;7.462;2023-07-20T12:37:57;38.40;25.30
79065;DHT22;68469;51.502;7.462;2023-07-20T12:40:23;36.30;26.30
79065;DHT22;68469;51.502;7.462;2023-07-20T12:42:49;34.50;28.90
79065;DHT22;68469;51.502;7.462;2023-07-20T12:45:15;34.40;28.30
79065;DHT22;68469;51.502;7.462;2023-07-20T12:47:41;33.70;28.70
79065;DHT22;68469;51.502;7.462;2023-07-20T12:50:12;32.90;29.40
79065;DHT22;68469;51.502;7.462;2023-07-20T12:52:39;32.30;30.60
79065;DHT22;68469;51.502;7.462;2023-07-20T12:55:05;31.40;31.00
79065;DHT22;68469;51.502;7.462;2023-07-20T12:57:36;30.60;33.30
79065;DHT22;68469;51.502;7.462;2023-07-20T13:00:03;29.90;33.80
79065;DHT22;68469;51.502;7.462;2023-07-20T13:02:31;29.40;34.70
79065;DHT22;68469;51.502;7.462;2023-07-20T13:04:57;29.20;35.10
79065;DHT22;68469;51.502;7.462;2023-07-20T13:07:33;28.90;36.10
79065;DHT22;68469;51.502;7.462;2023-07-20T13:09:59;28.70;35.40
79065;DHT22;68469;51.502;7.462;2023-07-20T13:12:26;28.50;35.80
79065;DHT22;68469;51.502;7.462;2023-07-20T13:14:52;28.20;35.70
79065;DHT22;68469;51.502;7.462;2023-07-20T13:17:18;28.00;36.40
79065;DHT22;68469;51.502;7.462;2023-07-20T13:19:44;27.70;36.90
79065;DHT22;68469;51.502;7.462;2023-07-20T13:22:10;27.50;38.90
79065;DHT22;68469;51.502;7.462;2023-07-20T13:24:36;27.30;39.10
79065;DHT22;68469;51.502;7.462;2023-07-20T13:27:02;27.10;38.10
79065;DHT22;68469;51.502;7.462;2023-07-20T13:29:27;26.90;38.80
79065;DHT22;68469;51.502;7.462;2023-07-20T13:31:53;26.80;39.10
79065;DHT22;68469;51.502;7.462;2023-07-20T13:34:18;26.70;39.00
79065;DHT22;68469;51.502;7.462;2023-07-20T13:36:44;26.60;39.30
79065;DHT22;68469;51.502;7.462;2023-07-20T13:39:10;26.50;38.70
79065;DHT22;68469;51.502;7.462;2023-07-20T13:41:35;26.40;38.90
79065;DHT22;68469;51.502;7.462;2023-07-20T13:44:01;26.40;39.90
79065;DHT22;68469;51.502;7.462;2023-07-20T13:46:27;26.30;40.00
79065;DHT22;68469;51.502;7.462;2023-07-20T13:48:52;26.20;40.90
79065;DHT22;68469;51.502;7.462;2023-07-20T13:51:18;26.10;39.90
79065;DHT22;68469;51.502;7.462;2023-07-20T13:53:47;26.00;40.50
79065;DHT22;68469;51.502;7.462;2023-07-20T13:56:12;25.90;42.10
79065;DHT22;68469;51.502;7.462;2023-07-20T13:58:38;25.80;42.10
79065;DHT22;68469;51.502;7.462;2023-07-20T14:01:04;25.80;43.20
79065;DHT22;68469;51.502;7.462;2023-07-20T14:03:29;25.70;41.10
79065;DHT22;68469;51.502;7.462;2023-07-20T14:05:55;25.70;42.30
79065;DHT22;68469;51.502;7.462;2023-07-20T14:08:22;25.60;41.90
79065;DHT22;68469;51.502;7.462;2023-07-20T14:10:47;25.50;43.20
79065;DHT22;68469;51.502;7.462;2023-07-20T14:13:13;25.40;42.00
79065;DHT22;68469;51.502;7.462;2023-07-20T14:15:39;25.30;42.30
79065;DHT22;68469;51.502;7.462;2023-07-20T14:18:04;25.40;43.70
79065;DHT22;68469;51.502;7.462;2023-07-20T14:20:30;25.40;42.00
79065;DHT22;68469;51.502;7.462;2023-07-20T14:22:56;25.40;42.10
79065;DHT22;68469;51.502;7.462;2023-07-20T14:25:21;25.50;43.20
79065;DHT22;68469;51.502;7.462;2023-07-20T14:27:47;25.50;41.30
79065;DHT22;68469;51.502;7.462;2023-07-20T14:30:13;25.50;42.10
79065;DHT22;68469;51.502;7.462;2023-07-20T14:32:40;25.50;42.30
79065;DHT22;68469;51.502;7.462;2023-07-20T14:35:06;25.60;43.50
79065;DHT22;68469;51.502;7.462;2023-07-20T14:37:32;25.60;43.30
79065;DHT22;68469;51.502;7.462;2023-07-20T14:39:58;25.50;43.40
79065;DHT22;68469;51.502;7.462;2023-07-20T14:42:24;25.40;43.60
79065;DHT22;68469;51.502;7.462;2023-07-20T14:44:50;25.30;42.80
79065;DHT22;68469;51.502;7.462;2023-07-20T14:47:15;25.20;42.30
79065;DHT22;68469;51.502;7.462;2023-07-20T14:49:41;25.10;42.40
79065;DHT22;68469;51.502;7.462;2023-07-20T14:52:07;25.00;43.40
79065;DHT22;68469;51.502;7.462;2023-07-20T14:54:32;25.00;44.10
79065;DHT22;68469;51.502;7.462;2023-07-20T14:56:58;25.00;42.10
79065;DHT22;68469;51.502;7.462;2023-07-20T14:59:23;24.90;43.60
79065;DHT22;68469;51.502;7.462;2023-07-20T15:01:49;24.80;43.90
79065;DHT22;68469;51.502;7.462;2023-07-20T15:04:16;24.70;44.50
79065;DHT22;68469;51.502;7.462;2023-07-20T15:06:42;24.70;43.60
79065;DHT22;68469;51.502;7.462;2023-07-20T15:09:08;24.60;44.90
79065;DHT22;68469;51.502;7.462;2023-07-20T15:11:35;24.50;43.30
79065;DHT22;68469;51.502;7.462;2023-07-20T15:14:01;24.50;41.90
79065;DHT22;68469;51.502;7.462;2023-07-20T15:16:27;24.50;44.70
79065;DHT22;68469;51.502;7.462;2023-07-20T15:18:52;24.50;45.40
79065;DHT22;68469;51.502;7.462;2023-07-20T15:21:18;24.40;45.10
79065;DHT22;68469;51.502;7.462;2023-07-20T15:23:44;24.40;44.80
79065;DHT22;68469;51.502;7.462;2023-07-20T15:26:10;24.40;44.40
79065;DHT22;68469;51.502;7.462;2023-07-20T15:28:39;24.40;43.20
79065;DHT22;68469;51.502;7.462;2023-07-20T15:31:06;24.40;44.60
79065;DHT22;68469;51.502;7.462;2023-07-20T15:33:32;24.50;44.20
79065;DHT22;68469;51.502;7.462;2023-07-20T15:35:57;24.50;45.60
79065;DHT22;68469;51.502;7.462;2023-07-20T15:38:23;24.50;45.50
79065;DHT22;68469;51.502;7.462;2023-07-20T15:40:48;24.50;45.40
79065;DHT22;68469;51.502;7.462;2023-07-20T15:43:17;24.50;45.70
79065;DHT22;68469;51.502;7.462;2023-07-20T15:45:47;24.50;43.90